sensor_id;sensor_type;location;lat;lon;timestamp;P1;durP1;ratioP1;P2;durP2;ratioP2
17239;SDS011;9943;54.378;18.604;2022-10-13T00:00:54;7.03;;;3.85;;
17239;SDS011;9943;54.378;18.604;2022-10-13T00:03:26;6.00;;;3.50;;
17239;SDS011;9943;54.378;18.604;2022-10-13T00:05:57;6.80;;;3.38;;
17239;SDS011;9943;54.378;18.604;2022-10-13T00:08:29;7.95;;;4.00;;
17239;SDS011;9943;54.378;18.604;2022-10-13T00:11:08;5.13;;;3.47;;
17239;SDS011;9943;54.378;18.604;2022-10-13T00:13:39;7.47;;;3.65;;
17239;SDS011;9943;54.378;18.604;2022-10-13T00:16:12;7.95;;;3.47;;
17239;SDS011;9943;54.378;18.604;2022-10-13T00:18:45;6.20;;;3.83;;
17239;SDS011;9943;54.378;18.604;2022-10-13T00:21:17;9.23;;;4.63;;
17239;SDS011;9943;54.378;18.604;2022-10-13T00:23:51;6.93;;;4.47;;
17239;SDS011;9943;54.378;18.604;2022-10-13T00:26:22;6.55;;;3.95;;
17239;SDS011;9943;54.378;18.604;2022-10-13T00:28:54;9.25;;;4.47;;
17239;SDS011;9943;54.378;18.604;2022-10-13T00:31:31;8.73;;;4.40;;
17239;SDS011;9943;54.378;18.604;2022-10-13T00:34:00;9.80;;;4.78;;
17239;SDS011;9943;54.378;18.604;2022-10-13T00:36:31;9.02;;;4.13;;
17239;SDS011;9943;54.378;18.604;2022-10-13T00:39:07;5.15;;;3.80;;
17239;SDS011;9943;54.378;18.604;2022-10-13T00:41:38;8.70;;;4.43;;
17239;SDS011;9943;54.378;18.604;2022-10-13T00:47:12;6.32;;;3.70;;
17239;SDS011;9943;54.378;18.604;2022-10-13T00:49:42;7.13;;;3.70;;
17239;SDS011;9943;54.378;18.604;2022-10-13T00:52:22;6.63;;;4.20;;
17239;SDS011;9943;54.378;18.604;2022-10-13T00:54:54;9.15;;;4.43;;
17239;SDS011;9943;54.378;18.604;2022-10-13T00:57:28;6.22;;;4.30;;
17239;SDS011;9943;54.378;18.604;2022-10-13T01:00:00;6.40;;;4.10;;
17239;SDS011;9943;54.378;18.604;2022-10-13T01:02:37;7.47;;;3.70;;
17239;SDS011;9943;54.378;18.604;2022-10-13T01:05:17;5.50;;;3.78;;
17239;SDS011;9943;54.378;18.604;2022-10-13T01:07:56;9.65;;;4.10;;
17239;SDS011;9943;54.378;18.604;2022-10-13T01:10:31;5.85;;;3.05;;
17239;SDS011;9943;54.378;18.604;2022-10-13T01:13:12;6.60;;;4.03;;
17239;SDS011;9943;54.378;18.604;2022-10-13T01:15:49;5.88;;;3.55;;
17239;SDS011;9943;54.378;18.604;2022-10-13T01:18:31;6.93;;;4.13;;
17239;SDS011;9943;54.378;18.604;2022-10-13T01:21:13;7.38;;;3.83;;
17239;SDS011;9943;54.378;18.604;2022-10-13T01:27:16;10.15;;;3.47;;
17239;SDS011;9943;54.378;18.604;2022-10-13T01:30:13;5.32;;;2.95;;
17239;SDS011;9943;54.378;18.604;2022-10-13T01:32:58;7.85;;;3.03;;
17239;SDS011;9943;54.378;18.604;2022-10-13T01:35:55;7.43;;;3.65;;
17239;SDS011;9943;54.378;18.604;2022-10-13T01:38:38;9.18;;;3.67;;
17239;SDS011;9943;54.378;18.604;2022-10-13T01:41:20;6.45;;;3.00;;
17239;SDS011;9943;54.378;18.604;2022-10-13T01:43:55;8.63;;;3.90;;
17239;SDS011;9943;54.378;18.604;2022-10-13T01:46:52;4.55;;;2.40;;
17239;SDS011;9943;54.378;18.604;2022-10-13T01:49:33;5.72;;;2.45;;
17239;SDS011;9943;54.378;18.604;2022-10-13T01:52:05;8.68;;;2.55;;
17239;SDS011;9943;54.378;18.604;2022-10-13T01:54:46;4.68;;;2.70;;
17239;SDS011;9943;54.378;18.604;2022-10-13T01:57:28;5.90;;;3.25;;
17239;SDS011;9943;54.378;18.604;2022-10-13T02:00:01;7.40;;;2.97;;
17239;SDS011;9943;54.378;18.604;2022-10-13T02:02:49;8.30;;;4.45;;
17239;SDS011;9943;54.378;18.604;2022-10-13T02:05:51;6.03;;;2.72;;
17239;SDS011;9943;54.378;18.604;2022-10-13T02:08:53;9.75;;;3.50;;
17239;SDS011;9943;54.378;18.604;2022-10-13T02:11:30;6.10;;;3.83;;
17239;SDS011;9943;54.378;18.604;2022-10-13T02:14:01;7.57;;;3.15;;
17239;SDS011;9943;54.378;18.604;2022-10-13T02:16:42;8.38;;;3.63;;
17239;SDS011;9943;54.378;18.604;2022-10-13T02:19:18;9.25;;;3.33;;
17239;SDS011;9943;54.378;18.604;2022-10-13T02:21:51;6.13;;;3.30;;
17239;SDS011;9943;54.378;18.604;2022-10-13T02:24:23;4.28;;;3.38;;
17239;SDS011;9943;54.378;18.604;2022-10-13T02:26:53;6.03;;;3.80;;
17239;SDS011;9943;54.378;18.604;2022-10-13T02:29:34;8.25;;;3.88;;
17239;SDS011;9943;54.378;18.604;2022-10-13T02:32:17;5.50;;;3.33;;
17239;SDS011;9943;54.378;18.604;2022-10-13T02:34:48;6.45;;;4.32;;
17239;SDS011;9943;54.378;18.604;2022-10-13T02:37:18;7.10;;;3.70;;
17239;SDS011;9943;54.378;18.604;2022-10-13T02:39:51;7.43;;;3.88;;
17239;SDS011;9943;54.378;18.604;2022-10-13T02:42:20;7.63;;;4.20;;
17239;SDS011;9943;54.378;18.604;2022-10-13T02:44:55;5.32;;;3.17;;
17239;SDS011;9943;54.378;18.604;2022-10-13T02:47:29;5.90;;;3.30;;
17239;SDS011;9943;54.378;18.604;2022-10-13T02:50:08;6.13;;;3.60;;
17239;SDS011;9943;54.378;18.604;2022-10-13T02:52:39;8.25;;;3.13;;
17239;SDS011;9943;54.378;18.604;2022-10-13T02:55:09;6.38;;;3.45;;
17239;SDS011;9943;54.378;18.604;2022-10-13T02:57:40;8.68;;;4.10;;
17239;SDS011;9943;54.378;18.604;2022-10-13T03:00:10;5.55;;;2.95;;
17239;SDS011;9943;54.378;18.604;2022-10-13T03:02:42;7.50;;;3.13;;
17239;SDS011;9943;54.378;18.604;2022-10-13T03:05:17;7.45;;;3.40;;
17239;SDS011;9943;54.378;18.604;2022-10-13T03:07:47;6.65;;;3.47;;
17239;SDS011;9943;54.378;18.604;2022-10-13T03:10:16;5.75;;;3.40;;
17239;SDS011;9943;54.378;18.604;2022-10-13T03:12:50;7.35;;;3.42;;
17239;SDS011;9943;54.378;18.604;2022-10-13T03:15:23;6.80;;;3.38;;
17239;SDS011;9943;54.378;18.604;2022-10-13T03:17:53;8.02;;;3.63;;
17239;SDS011;9943;54.378;18.604;2022-10-13T03:20:29;5.15;;;3.15;;
17239;SDS011;9943;54.378;18.604;2022-10-13T03:23:01;7.85;;;3.00;;
17239;SDS011;9943;54.378;18.604;2022-10-13T03:25:32;8.63;;;3.38;;
17239;SDS011;9943;54.378;18.604;2022-10-13T03:28:12;7.60;;;3.22;;
17239;SDS011;9943;54.378;18.604;2022-10-13T03:30:42;6.68;;;3.45;;
17239;SDS011;9943;54.378;18.604;2022-10-13T03:33:12;4.50;;;3.05;;
17239;SDS011;9943;54.378;18.604;2022-10-13T03:35:50;5.75;;;3.17;;
17239;SDS011;9943;54.378;18.604;2022-10-13T03:38:24;4.25;;;2.97;;
17239;SDS011;9943;54.378;18.604;2022-10-13T03:40:54;6.57;;;3.60;;
17239;SDS011;9943;54.378;18.604;2022-10-13T03:43:26;5.22;;;2.90;;
17239;SDS011;9943;54.378;18.604;2022-10-13T03:45:57;6.18;;;3.35;;
17239;SDS011;9943;54.378;18.604;2022-10-13T03:48:30;6.22;;;2.92;;
17239;SDS011;9943;54.378;18.604;2022-10-13T03:51:04;12.32;;;3.83;;
17239;SDS011;9943;54.378;18.604;2022-10-13T03:53:38;6.15;;;3.08;;
17239;SDS011;9943;54.378;18.604;2022-10-13T03:56:09;5.63;;;3.22;;
17239;SDS011;9943;54.378;18.604;2022-10-13T03:58:45;5.13;;;2.80;;
17239;SDS011;9943;54.378;18.604;2022-10-13T04:01:21;4.57;;;2.88;;
17239;SDS011;9943;54.378;18.604;2022-10-13T04:03:52;8.38;;;3.17;;
17239;SDS011;9943;54.378;18.604;2022-10-13T04:06:24;5.72;;;2.85;;
17239;SDS011;9943;54.378;18.604;2022-10-13T04:08:57;5.25;;;2.88;;
17239;SDS011;9943;54.378;18.604;2022-10-13T04:11:31;8.30;;;3.45;;
17239;SDS011;9943;54.378;18.604;2022-10-13T04:14:02;5.13;;;3.15;;
17239;SDS011;9943;54.378;18.604;2022-10-13T04:16:34;4.63;;;3.08;;
17239;SDS011;9943;54.378;18.604;2022-10-13T04:19:06;4.53;;;2.90;;
17239;SDS011;9943;54.378;18.604;2022-10-13T04:21:43;7.15;;;3.45;;
17239;SDS011;9943;54.378;18.604;2022-10-13T04:24:13;9.38;;;3.10;;
17239;SDS011;9943;54.378;18.604;2022-10-13T04:26:44;5.68;;;3.28;;
17239;SDS011;9943;54.378;18.604;2022-10-13T04:29:13;7.70;;;3.40;;
17239;SDS011;9943;54.378;18.604;2022-10-13T04:31:44;6.68;;;3.85;;
17239;SDS011;9943;54.378;18.604;2022-10-13T04:34:16;6.22;;;3.47;;
17239;SDS011;9943;54.378;18.604;2022-10-13T04:36:53;9.77;;;3.85;;
17239;SDS011;9943;54.378;18.604;2022-10-13T04:39:25;6.10;;;3.47;;
17239;SDS011;9943;54.378;18.604;2022-10-13T04:41:57;8.77;;;3.53;;
17239;SDS011;9943;54.378;18.604;2022-10-13T04:44:29;12.35;;;4.15;;
17239;SDS011;9943;54.378;18.604;2022-10-13T04:47:04;7.00;;;3.38;;
17239;SDS011;9943;54.378;18.604;2022-10-13T04:49:46;8.55;;;4.07;;
17239;SDS011;9943;54.378;18.604;2022-10-13T04:52:21;11.10;;;4.40;;
17239;SDS011;9943;54.378;18.604;2022-10-13T04:54:54;8.25;;;4.13;;
17239;SDS011;9943;54.378;18.604;2022-10-13T04:57:24;10.70;;;4.35;;
17239;SDS011;9943;54.378;18.604;2022-10-13T04:59:52;9.57;;;4.32;;
17239;SDS011;9943;54.378;18.604;2022-10-13T05:02:22;9.65;;;5.18;;
17239;SDS011;9943;54.378;18.604;2022-10-13T05:04:51;9.13;;;4.97;;
17239;SDS011;9943;54.378;18.604;2022-10-13T05:07:24;10.35;;;5.68;;
17239;SDS011;9943;54.378;18.604;2022-10-13T05:10:01;15.70;;;7.38;;
17239;SDS011;9943;54.378;18.604;2022-10-13T05:12:34;14.93;;;8.18;;
17239;SDS011;9943;54.378;18.604;2022-10-13T05:15:09;16.25;;;8.43;;
17239;SDS011;9943;54.378;18.604;2022-10-13T05:17:42;13.23;;;7.45;;
17239;SDS011;9943;54.378;18.604;2022-10-13T05:20:17;11.73;;;7.47;;
17239;SDS011;9943;54.378;18.604;2022-10-13T05:22:57;12.02;;;8.20;;
17239;SDS011;9943;54.378;18.604;2022-10-13T05:25:27;17.60;;;9.57;;
17239;SDS011;9943;54.378;18.604;2022-10-13T05:27:56;25.85;;;10.88;;
17239;SDS011;9943;54.378;18.604;2022-10-13T05:30:28;17.05;;;9.90;;
17239;SDS011;9943;54.378;18.604;2022-10-13T05:33:00;17.25;;;10.60;;
17239;SDS011;9943;54.378;18.604;2022-10-13T05:35:37;19.35;;;10.50;;
17239;SDS011;9943;54.378;18.604;2022-10-13T05:38:12;18.58;;;11.02;;
17239;SDS011;9943;54.378;18.604;2022-10-13T05:40:41;18.45;;;9.88;;
17239;SDS011;9943;54.378;18.604;2022-10-13T05:43:10;18.58;;;11.27;;
17239;SDS011;9943;54.378;18.604;2022-10-13T05:45:42;23.05;;;11.75;;
17239;SDS011;9943;54.378;18.604;2022-10-13T05:48:12;17.55;;;11.75;;
17239;SDS011;9943;54.378;18.604;2022-10-13T05:51:01;24.55;;;15.07;;
17239;SDS011;9943;54.378;18.604;2022-10-13T05:53:46;21.65;;;12.35;;
17239;SDS011;9943;54.378;18.604;2022-10-13T05:56:20;22.42;;;13.57;;
17239;SDS011;9943;54.378;18.604;2022-10-13T05:58:58;29.25;;;14.65;;
17239;SDS011;9943;54.378;18.604;2022-10-13T06:01:31;23.67;;;13.55;;
17239;SDS011;9943;54.378;18.604;2022-10-13T06:04:05;19.10;;;12.05;;
17239;SDS011;9943;54.378;18.604;2022-10-13T06:06:39;20.52;;;13.35;;
17239;SDS011;9943;54.378;18.604;2022-10-13T06:09:16;20.88;;;12.50;;
17239;SDS011;9943;54.378;18.604;2022-10-13T06:11:53;24.50;;;13.20;;
17239;SDS011;9943;54.378;18.604;2022-10-13T06:14:25;18.63;;;12.65;;
17239;SDS011;9943;54.378;18.604;2022-10-13T06:16:58;22.30;;;13.30;;
17239;SDS011;9943;54.378;18.604;2022-10-13T06:19:32;20.77;;;12.77;;
17239;SDS011;9943;54.378;18.604;2022-10-13T06:22:03;21.73;;;12.90;;
17239;SDS011;9943;54.378;18.604;2022-10-13T06:24:35;23.73;;;13.65;;
17239;SDS011;9943;54.378;18.604;2022-10-13T06:27:06;17.88;;;12.05;;
17239;SDS011;9943;54.378;18.604;2022-10-13T06:29:37;21.05;;;13.40;;
17239;SDS011;9943;54.378;18.604;2022-10-13T06:32:08;20.83;;;12.80;;
17239;SDS011;9943;54.378;18.604;2022-10-13T06:34:40;22.30;;;13.70;;
17239;SDS011;9943;54.378;18.604;2022-10-13T06:37:13;21.60;;;13.77;;
17239;SDS011;9943;54.378;18.604;2022-10-13T06:39:44;23.95;;;14.48;;
17239;SDS011;9943;54.378;18.604;2022-10-13T06:42:14;22.08;;;13.68;;
17239;SDS011;9943;54.378;18.604;2022-10-13T06:44:47;16.88;;;12.57;;
17239;SDS011;9943;54.378;18.604;2022-10-13T06:47:19;18.67;;;12.30;;
17239;SDS011;9943;54.378;18.604;2022-10-13T06:49:49;18.13;;;11.55;;
17239;SDS011;9943;54.378;18.604;2022-10-13T06:52:20;21.85;;;11.52;;
17239;SDS011;9943;54.378;18.604;2022-10-13T06:54:51;17.67;;;11.07;;
17239;SDS011;9943;54.378;18.604;2022-10-13T06:57:19;19.60;;;11.52;;
17239;SDS011;9943;54.378;18.604;2022-10-13T07:00:01;17.25;;;10.65;;
17239;SDS011;9943;54.378;18.604;2022-10-13T07:02:30;19.65;;;11.65;;
17239;SDS011;9943;54.378;18.604;2022-10-13T07:05:01;16.30;;;10.57;;
17239;SDS011;9943;54.378;18.604;2022-10-13T07:07:34;17.75;;;11.00;;
17239;SDS011;9943;54.378;18.604;2022-10-13T07:10:10;15.13;;;10.18;;
17239;SDS011;9943;54.378;18.604;2022-10-13T07:12:46;16.52;;;11.60;;
17239;SDS011;9943;54.378;18.604;2022-10-13T07:15:18;15.55;;;10.25;;
17239;SDS011;9943;54.378;18.604;2022-10-13T07:17:49;18.52;;;10.32;;
17239;SDS011;9943;54.378;18.604;2022-10-13T07:20:19;18.73;;;10.75;;
17239;SDS011;9943;54.378;18.604;2022-10-13T07:22:52;21.17;;;10.32;;
17239;SDS011;9943;54.378;18.604;2022-10-13T07:25:23;21.77;;;10.70;;
17239;SDS011;9943;54.378;18.604;2022-10-13T07:28:03;17.27;;;10.50;;
17239;SDS011;9943;54.378;18.604;2022-10-13T07:30:37;16.92;;;10.35;;
17239;SDS011;9943;54.378;18.604;2022-10-13T07:33:15;13.52;;;9.50;;
17239;SDS011;9943;54.378;18.604;2022-10-13T07:35:47;16.52;;;10.07;;
17239;SDS011;9943;54.378;18.604;2022-10-13T07:38:16;18.73;;;9.88;;
17239;SDS011;9943;54.378;18.604;2022-10-13T07:40:55;16.85;;;10.18;;
17239;SDS011;9943;54.378;18.604;2022-10-13T07:43:30;11.25;;;8.48;;
17239;SDS011;9943;54.378;18.604;2022-10-13T07:45:58;15.32;;;9.40;;
17239;SDS011;9943;54.378;18.604;2022-10-13T07:48:33;15.15;;;9.07;;
17239;SDS011;9943;54.378;18.604;2022-10-13T07:51:09;17.80;;;9.43;;
17239;SDS011;9943;54.378;18.604;2022-10-13T07:53:39;15.65;;;8.77;;
17239;SDS011;9943;54.378;18.604;2022-10-13T07:56:12;17.52;;;9.10;;
17239;SDS011;9943;54.378;18.604;2022-10-13T07:58:43;15.40;;;9.60;;
17239;SDS011;9943;54.378;18.604;2022-10-13T08:01:15;17.35;;;9.10;;
17239;SDS011;9943;54.378;18.604;2022-10-13T08:03:44;13.43;;;8.23;;
17239;SDS011;9943;54.378;18.604;2022-10-13T08:06:15;19.13;;;9.30;;
17239;SDS011;9943;54.378;18.604;2022-10-13T08:08:46;14.25;;;9.23;;
17239;SDS011;9943;54.378;18.604;2022-10-13T08:11:20;16.83;;;8.68;;
17239;SDS011;9943;54.378;18.604;2022-10-13T08:13:49;18.13;;;8.77;;
17239;SDS011;9943;54.378;18.604;2022-10-13T08:16:36;14.80;;;9.00;;
17239;SDS011;9943;54.378;18.604;2022-10-13T08:19:14;14.20;;;8.27;;
17239;SDS011;9943;54.378;18.604;2022-10-13T08:21:46;16.63;;;7.90;;
17239;SDS011;9943;54.378;18.604;2022-10-13T08:24:21;15.23;;;8.93;;
17239;SDS011;9943;54.378;18.604;2022-10-13T08:26:57;15.75;;;8.90;;
17239;SDS011;9943;54.378;18.604;2022-10-13T08:29:57;15.65;;;8.43;;
17239;SDS011;9943;54.378;18.604;2022-10-13T08:32:46;13.35;;;7.03;;
17239;SDS011;9943;54.378;18.604;2022-10-13T08:35:18;13.98;;;7.80;;
17239;SDS011;9943;54.378;18.604;2022-10-13T08:38:07;17.58;;;8.05;;
17239;SDS011;9943;54.378;18.604;2022-10-13T08:40:38;15.10;;;7.57;;
17239;SDS011;9943;54.378;18.604;2022-10-13T08:43:24;12.65;;;7.50;;
17239;SDS011;9943;54.378;18.604;2022-10-13T08:45:55;13.60;;;6.38;;
17239;SDS011;9943;54.378;18.604;2022-10-13T08:48:32;16.90;;;8.00;;
17239;SDS011;9943;54.378;18.604;2022-10-13T08:51:18;14.15;;;6.82;;
17239;SDS011;9943;54.378;18.604;2022-10-13T08:53:53;11.35;;;6.25;;
17239;SDS011;9943;54.378;18.604;2022-10-13T08:56:24;9.02;;;5.95;;
17239;SDS011;9943;54.378;18.604;2022-10-13T08:59:08;11.48;;;6.93;;
17239;SDS011;9943;54.378;18.604;2022-10-13T09:01:52;15.65;;;6.20;;
17239;SDS011;9943;54.378;18.604;2022-10-13T09:04:43;15.32;;;6.50;;
17239;SDS011;9943;54.378;18.604;2022-10-13T09:07:19;11.07;;;6.05;;
17239;SDS011;9943;54.378;18.604;2022-10-13T09:09:52;13.25;;;6.25;;
17239;SDS011;9943;54.378;18.604;2022-10-13T09:12:27;10.43;;;6.18;;
17239;SDS011;9943;54.378;18.604;2022-10-13T09:15:08;12.05;;;6.00;;
17239;SDS011;9943;54.378;18.604;2022-10-13T09:17:41;10.18;;;5.50;;
17239;SDS011;9943;54.378;18.604;2022-10-13T09:20:15;12.45;;;6.63;;
17239;SDS011;9943;54.378;18.604;2022-10-13T09:22:59;11.35;;;6.22;;
17239;SDS011;9943;54.378;18.604;2022-10-13T09:25:31;14.10;;;6.03;;
17239;SDS011;9943;54.378;18.604;2022-10-13T09:28:13;9.90;;;5.05;;
17239;SDS011;9943;54.378;18.604;2022-10-13T09:30:59;7.63;;;4.65;;
17239;SDS011;9943;54.378;18.604;2022-10-13T09:33:55;10.63;;;5.30;;
17239;SDS011;9943;54.378;18.604;2022-10-13T09:36:31;11.43;;;5.53;;
17239;SDS011;9943;54.378;18.604;2022-10-13T09:39:06;10.13;;;4.63;;
17239;SDS011;9943;54.378;18.604;2022-10-13T09:41:39;9.50;;;5.07;;
17239;SDS011;9943;54.378;18.604;2022-10-13T09:44:13;13.43;;;5.05;;
17239;SDS011;9943;54.378;18.604;2022-10-13T09:46:51;10.60;;;5.15;;
17239;SDS011;9943;54.378;18.604;2022-10-13T09:49:34;11.95;;;4.88;;
17239;SDS011;9943;54.378;18.604;2022-10-13T09:52:14;11.35;;;4.68;;
17239;SDS011;9943;54.378;18.604;2022-10-13T09:54:53;7.72;;;4.82;;
17239;SDS011;9943;54.378;18.604;2022-10-13T09:57:33;10.20;;;4.60;;
17239;SDS011;9943;54.378;18.604;2022-10-13T10:00:16;10.48;;;4.70;;
17239;SDS011;9943;54.378;18.604;2022-10-13T10:03:04;10.23;;;5.07;;
17239;SDS011;9943;54.378;18.604;2022-10-13T10:05:46;8.82;;;4.88;;
17239;SDS011;9943;54.378;18.604;2022-10-13T10:08:25;10.98;;;4.50;;
17239;SDS011;9943;54.378;18.604;2022-10-13T10:10:59;8.10;;;4.35;;
17239;SDS011;9943;54.378;18.604;2022-10-13T10:13:36;9.50;;;4.60;;
17239;SDS011;9943;54.378;18.604;2022-10-13T10:16:18;7.72;;;4.60;;
17239;SDS011;9943;54.378;18.604;2022-10-13T10:19:04;9.30;;;4.40;;
17239;SDS011;9943;54.378;18.604;2022-10-13T10:21:42;6.95;;;4.13;;
17239;SDS011;9943;54.378;18.604;2022-10-13T10:24:21;11.00;;;4.25;;
17239;SDS011;9943;54.378;18.604;2022-10-13T10:26:55;12.15;;;4.63;;
17239;SDS011;9943;54.378;18.604;2022-10-13T10:29:32;5.60;;;3.40;;
17239;SDS011;9943;54.378;18.604;2022-10-13T10:32:13;8.25;;;3.97;;
17239;SDS011;9943;54.378;18.604;2022-10-13T10:38:11;7.90;;;4.15;;
17239;SDS011;9943;54.378;18.604;2022-10-13T10:40:58;6.90;;;3.70;;
17239;SDS011;9943;54.378;18.604;2022-10-13T10:43:46;8.02;;;4.35;;
17239;SDS011;9943;54.378;18.604;2022-10-13T10:46:20;9.77;;;3.88;;
17239;SDS011;9943;54.378;18.604;2022-10-13T10:48:52;9.38;;;4.40;;
17239;SDS011;9943;54.378;18.604;2022-10-13T10:51:39;6.30;;;3.63;;
17239;SDS011;9943;54.378;18.604;2022-10-13T10:54:15;11.63;;;4.03;;
17239;SDS011;9943;54.378;18.604;2022-10-13T10:56:52;12.20;;;4.05;;
17239;SDS011;9943;54.378;18.604;2022-10-13T10:59:38;13.68;;;4.68;;
17239;SDS011;9943;54.378;18.604;2022-10-13T11:02:18;5.45;;;3.75;;
17239;SDS011;9943;54.378;18.604;2022-10-13T11:05:10;8.38;;;4.18;;
17239;SDS011;9943;54.378;18.604;2022-10-13T11:13:56;9.52;;;4.47;;
17239;SDS011;9943;54.378;18.604;2022-10-13T11:16:32;10.20;;;3.50;;
17239;SDS011;9943;54.378;18.604;2022-10-13T11:19:11;7.55;;;4.05;;
17239;SDS011;9943;54.378;18.604;2022-10-13T11:24:58;11.40;;;4.47;;
17239;SDS011;9943;54.378;18.604;2022-10-13T11:27:41;7.78;;;3.92;;
17239;SDS011;9943;54.378;18.604;2022-10-13T11:48:59;8.30;;;4.40;;
17239;SDS011;9943;54.378;18.604;2022-10-13T11:51:54;8.73;;;4.28;;
17239;SDS011;9943;54.378;18.604;2022-10-13T11:54:50;8.15;;;4.07;;
17239;SDS011;9943;54.378;18.604;2022-10-13T11:57:31;8.93;;;4.22;;
17239;SDS011;9943;54.378;18.604;2022-10-13T12:00:03;5.75;;;3.75;;
17239;SDS011;9943;54.378;18.604;2022-10-13T12:02:34;7.28;;;4.28;;
17239;SDS011;9943;54.378;18.604;2022-10-13T12:05:18;8.32;;;4.35;;
17239;SDS011;9943;54.378;18.604;2022-10-13T12:07:58;8.80;;;4.22;;
17239;SDS011;9943;54.378;18.604;2022-10-13T12:10:34;8.70;;;4.05;;
17239;SDS011;9943;54.378;18.604;2022-10-13T12:13:14;11.43;;;4.75;;
17239;SDS011;9943;54.378;18.604;2022-10-13T12:15:57;8.88;;;4.15;;
17239;SDS011;9943;54.378;18.604;2022-10-13T12:18:32;8.00;;;3.88;;
17239;SDS011;9943;54.378;18.604;2022-10-13T12:21:08;8.15;;;4.13;;
17239;SDS011;9943;54.378;18.604;2022-10-13T12:23:40;7.68;;;4.20;;
17239;SDS011;9943;54.378;18.604;2022-10-13T12:26:16;10.35;;;5.25;;
17239;SDS011;9943;54.378;18.604;2022-10-13T12:28:48;10.10;;;4.88;;
17239;SDS011;9943;54.378;18.604;2022-10-13T12:31:22;11.07;;;4.78;;
17239;SDS011;9943;54.378;18.604;2022-10-13T12:33:56;8.55;;;4.32;;
17239;SDS011;9943;54.378;18.604;2022-10-13T12:36:31;10.75;;;5.18;;
17239;SDS011;9943;54.378;18.604;2022-10-13T12:39:02;12.80;;;5.47;;
17239;SDS011;9943;54.378;18.604;2022-10-13T12:41:34;8.90;;;4.75;;
17239;SDS011;9943;54.378;18.604;2022-10-13T12:44:10;10.43;;;5.20;;
17239;SDS011;9943;54.378;18.604;2022-10-13T12:46:43;13.25;;;4.90;;
17239;SDS011;9943;54.378;18.604;2022-10-13T12:49:19;9.23;;;5.03;;
17239;SDS011;9943;54.378;18.604;2022-10-13T12:51:53;10.00;;;4.38;;
17239;SDS011;9943;54.378;18.604;2022-10-13T12:54:32;7.40;;;4.70;;
17239;SDS011;9943;54.378;18.604;2022-10-13T12:57:03;8.65;;;4.53;;
17239;SDS011;9943;54.378;18.604;2022-10-13T12:59:40;9.38;;;4.82;;
17239;SDS011;9943;54.378;18.604;2022-10-13T13:02:18;7.57;;;3.95;;
17239;SDS011;9943;54.378;18.604;2022-10-13T13:04:59;8.13;;;4.70;;
17239;SDS011;9943;54.378;18.604;2022-10-13T13:07:32;7.20;;;3.90;;
17239;SDS011;9943;54.378;18.604;2022-10-13T13:10:13;8.05;;;4.60;;
17239;SDS011;9943;54.378;18.604;2022-10-13T13:12:46;8.52;;;5.00;;
17239;SDS011;9943;54.378;18.604;2022-10-13T13:15:30;7.35;;;4.45;;
17239;SDS011;9943;54.378;18.604;2022-10-13T13:18:28;9.15;;;4.88;;
17239;SDS011;9943;54.378;18.604;2022-10-13T13:21:05;11.85;;;4.50;;
17239;SDS011;9943;54.378;18.604;2022-10-13T13:23:42;7.47;;;4.40;;
17239;SDS011;9943;54.378;18.604;2022-10-13T13:26:15;10.52;;;5.38;;
17239;SDS011;9943;54.378;18.604;2022-10-13T13:28:46;11.95;;;4.78;;
17239;SDS011;9943;54.378;18.604;2022-10-13T13:31:22;13.07;;;4.63;;
17239;SDS011;9943;54.378;18.604;2022-10-13T13:34:05;8.38;;;4.53;;
17239;SDS011;9943;54.378;18.604;2022-10-13T13:36:36;8.95;;;4.60;;
17239;SDS011;9943;54.378;18.604;2022-10-13T13:39:10;7.93;;;4.70;;
17239;SDS011;9943;54.378;18.604;2022-10-13T13:41:45;8.30;;;4.60;;
17239;SDS011;9943;54.378;18.604;2022-10-13T13:44:21;11.45;;;4.90;;
17239;SDS011;9943;54.378;18.604;2022-10-13T13:46:50;11.63;;;5.38;;
17239;SDS011;9943;54.378;18.604;2022-10-13T13:49:21;9.73;;;4.85;;
17239;SDS011;9943;54.378;18.604;2022-10-13T13:52:05;11.30;;;5.03;;
17239;SDS011;9943;54.378;18.604;2022-10-13T13:54:37;6.93;;;4.45;;
17239;SDS011;9943;54.378;18.604;2022-10-13T13:57:09;9.10;;;5.22;;
17239;SDS011;9943;54.378;18.604;2022-10-13T13:59:41;20.02;;;6.50;;
17239;SDS011;9943;54.378;18.604;2022-10-13T14:02:13;8.95;;;4.85;;
17239;SDS011;9943;54.378;18.604;2022-10-13T14:04:52;8.68;;;5.50;;
17239;SDS011;9943;54.378;18.604;2022-10-13T14:07:23;13.82;;;5.45;;
17239;SDS011;9943;54.378;18.604;2022-10-13T14:09:53;6.95;;;4.60;;
17239;SDS011;9943;54.378;18.604;2022-10-13T14:12:31;9.05;;;4.95;;
17239;SDS011;9943;54.378;18.604;2022-10-13T14:15:03;13.55;;;5.10;;
17239;SDS011;9943;54.378;18.604;2022-10-13T14:17:33;8.10;;;5.18;;
17239;SDS011;9943;54.378;18.604;2022-10-13T14:20:13;9.50;;;5.63;;
17239;SDS011;9943;54.378;18.604;2022-10-13T14:22:41;12.98;;;5.00;;
17239;SDS011;9943;54.378;18.604;2022-10-13T14:25:12;10.57;;;5.50;;
17239;SDS011;9943;54.378;18.604;2022-10-13T14:27:44;9.63;;;6.03;;
17239;SDS011;9943;54.378;18.604;2022-10-13T14:30:15;12.00;;;5.07;;
17239;SDS011;9943;54.378;18.604;2022-10-13T14:32:47;13.70;;;5.28;;
17239;SDS011;9943;54.378;18.604;2022-10-13T14:35:18;12.77;;;5.18;;
17239;SDS011;9943;54.378;18.604;2022-10-13T14:37:51;11.48;;;5.63;;
17239;SDS011;9943;54.378;18.604;2022-10-13T14:40:19;12.52;;;5.38;;
17239;SDS011;9943;54.378;18.604;2022-10-13T14:42:49;12.40;;;5.82;;
17239;SDS011;9943;54.378;18.604;2022-10-13T14:45:18;13.10;;;5.65;;
17239;SDS011;9943;54.378;18.604;2022-10-13T14:47:50;9.48;;;5.00;;
17239;SDS011;9943;54.378;18.604;2022-10-13T14:50:34;10.93;;;5.13;;
17239;SDS011;9943;54.378;18.604;2022-10-13T14:53:09;9.52;;;5.20;;
17239;SDS011;9943;54.378;18.604;2022-10-13T14:55:41;12.15;;;5.45;;
17239;SDS011;9943;54.378;18.604;2022-10-13T14:58:11;10.45;;;5.60;;
17239;SDS011;9943;54.378;18.604;2022-10-13T15:00:44;9.68;;;4.93;;
17239;SDS011;9943;54.378;18.604;2022-10-13T15:03:16;14.00;;;5.10;;
17239;SDS011;9943;54.378;18.604;2022-10-13T15:05:47;12.77;;;5.53;;
17239;SDS011;9943;54.378;18.604;2022-10-13T15:08:18;12.98;;;5.80;;
17239;SDS011;9943;54.378;18.604;2022-10-13T15:10:47;12.88;;;5.88;;
17239;SDS011;9943;54.378;18.604;2022-10-13T15:13:15;12.00;;;6.20;;
17239;SDS011;9943;54.378;18.604;2022-10-13T15:15:48;9.95;;;6.00;;
17239;SDS011;9943;54.378;18.604;2022-10-13T15:18:20;11.95;;;5.45;;
17239;SDS011;9943;54.378;18.604;2022-10-13T15:20:52;13.68;;;6.03;;
17239;SDS011;9943;54.378;18.604;2022-10-13T15:23:22;11.65;;;5.88;;
17239;SDS011;9943;54.378;18.604;2022-10-13T15:26:07;12.95;;;6.50;;
17239;SDS011;9943;54.378;18.604;2022-10-13T15:28:40;10.82;;;5.35;;
17239;SDS011;9943;54.378;18.604;2022-10-13T15:31:10;13.57;;;6.00;;
17239;SDS011;9943;54.378;18.604;2022-10-13T15:33:44;11.18;;;5.57;;
17239;SDS011;9943;54.378;18.604;2022-10-13T15:36:34;13.45;;;6.40;;
17239;SDS011;9943;54.378;18.604;2022-10-13T15:39:08;15.23;;;5.72;;
17239;SDS011;9943;54.378;18.604;2022-10-13T15:41:38;14.70;;;6.28;;
17239;SDS011;9943;54.378;18.604;2022-10-13T15:44:07;10.75;;;6.25;;
17239;SDS011;9943;54.378;18.604;2022-10-13T15:49:34;18.60;;;6.72;;
17239;SDS011;9943;54.378;18.604;2022-10-13T15:52:06;12.20;;;6.85;;
17239;SDS011;9943;54.378;18.604;2022-10-13T15:54:43;13.75;;;6.18;;
17239;SDS011;9943;54.378;18.604;2022-10-13T15:57:13;11.23;;;6.45;;
17239;SDS011;9943;54.378;18.604;2022-10-13T15:59:44;11.38;;;6.00;;
17239;SDS011;9943;54.378;18.604;2022-10-13T16:02:13;15.48;;;7.05;;
17239;SDS011;9943;54.378;18.604;2022-10-13T16:04:42;13.82;;;6.78;;
17239;SDS011;9943;54.378;18.604;2022-10-13T16:07:15;15.85;;;7.13;;